createdAt,value
2017-02-22T00:02:13.012Z,23.7
2017-02-22T00:04:45.658Z,23.7
2017-02-22T00:07:18.310Z,23.7
2017-02-22T00:09:50.960Z,23.7
2017-02-22T00:12:23.608Z,23.7
2017-02-22T00:14:56.657Z,23.7
2017-02-22T00:17:29.268Z,23.7
2017-02-22T00:20:02.321Z,23.7
2017-02-22T00:22:35.835Z,23.7
2017-02-22T00:25:08.482Z,23.7
2017-02-22T00:27:41.224Z,23.7
2017-02-22T00:30:13.846Z,23.7
2017-02-22T00:32:47.092Z,23.7
2017-02-22T00:35:21.335Z,23.6
2017-02-22T00:37:54.675Z,23.7
2017-02-22T00:40:27.431Z,23.7
2017-02-22T00:43:00.127Z,23.7
2017-02-22T00:45:34.025Z,23.6
2017-02-22T00:48:07.512Z,23.6
2017-02-22T00:50:40.152Z,23.7
2017-02-22T00:53:12.804Z,23.6
2017-02-22T00:55:45.884Z,23.6
2017-02-22T00:58:18.599Z,23.6
2017-02-22T01:00:51.245Z,23.6
2017-02-22T01:03:23.923Z,23.6
2017-02-22T01:05:56.582Z,23.6
2017-02-22T01:08:29.237Z,23.6
2017-02-22T01:11:02.405Z,23.6
2017-02-22T01:13:35.047Z,23.6
2017-02-22T01:16:08.147Z,23.5
2017-02-22T01:18:41.223Z,23.5
2017-02-22T01:21:13.854Z,23.5
2017-02-22T01:23:46.507Z,23.5
2017-02-22T01:26:19.161Z,23.6
2017-02-22T01:28:52.214Z,23.6
2017-02-22T01:31:25.691Z,23.6
2017-02-22T01:33:58.311Z,23.6
2017-02-22T01:36:31.384Z,23.6
2017-02-22T01:39:04.513Z,23.5
2017-02-22T01:41:37.179Z,23.5
2017-02-22T01:44:09.837Z,23.5
2017-02-22T01:46:42.579Z,23.5
2017-02-22T01:49:15.207Z,23.5
2017-02-22T01:51:48.061Z,23.6
2017-02-22T01:54:20.691Z,23.6
2017-02-22T01:56:54.206Z,23.6
2017-02-22T01:59:26.873Z,23.6
2017-02-22T02:01:59.509Z,23.6
2017-02-22T02:04:32.628Z,23.6
2017-02-22T02:07:05.256Z,23.6
2017-02-22T02:09:37.915Z,23.6
2017-02-22T02:12:10.763Z,23.7
2017-02-22T02:14:43.823Z,23.6
2017-02-22T02:17:16.670Z,23.6
2017-02-22T02:19:49.740Z,23.6
2017-02-22T02:22:22.421Z,23.7
2017-02-22T02:24:55.069Z,23.7
2017-02-22T02:27:27.766Z,23.6
2017-02-22T02:30:00.398Z,23.6
2017-02-22T02:32:33.890Z,23.6
2017-02-22T02:35:07.375Z,23.6
2017-02-22T02:37:40.015Z,23.6
2017-02-22T02:40:12.624Z,23.6
2017-02-22T02:42:45.293Z,23.6
2017-02-22T02:45:17.944Z,23.6
2017-02-22T02:47:50.615Z,23.6
2017-02-22T02:50:23.324Z,23.6
2017-02-22T02:52:55.955Z,23.6
2017-02-22T02:55:29.020Z,23.6
2017-02-22T02:58:01.658Z,23.6
2017-02-22T03:01:06.790Z,23.6
2017-02-22T03:03:39.628Z,23.6
2017-02-22T03:06:12.665Z,23.6
2017-02-22T03:08:45.269Z,23.6
2017-02-22T03:11:17.900Z,23.6
2017-02-22T03:13:50.973Z,23.6
2017-02-22T03:16:23.620Z,23.6
2017-02-22T03:18:56.262Z,23.6
2017-02-22T03:21:28.919Z,23.6
2017-02-22T03:24:01.771Z,23.6
2017-02-22T03:26:35.283Z,23.6
2017-02-22T03:29:08.372Z,23.6
2017-02-22T03:31:41.015Z,23.6
2017-02-22T03:34:13.680Z,23.6
2017-02-22T03:36:46.318Z,23.6
2017-02-22T03:39:18.927Z,23.6
2017-02-22T03:41:51.967Z,23.6
2017-02-22T03:44:24.632Z,23.6
2017-02-22T03:46:57.673Z,23.6
2017-02-22T03:49:30.732Z,23.6
2017-02-22T03:52:03.370Z,23.6
2017-02-22T03:54:36.003Z,23.6
2017-02-22T03:57:09.039Z,23.6
2017-02-22T03:59:41.684Z,23.6
2017-02-22T04:02:14.340Z,23.6
2017-02-22T04:04:47.398Z,23.6
2017-02-22T04:07:20.026Z,23.6
2017-02-22T04:09:52.647Z,23.6
2017-02-22T04:12:26.112Z,23.6
2017-02-22T04:14:58.735Z,23.6
2017-02-22T04:17:31.771Z,23.6
2017-02-22T04:20:04.415Z,23.6
2017-02-22T04:22:37.037Z,23.6
2017-02-22T04:25:10.111Z,23.6
2017-02-22T04:27:42.778Z,23.6
2017-02-22T04:30:15.831Z,23.6
2017-02-22T04:32:48.480Z,23.6
2017-02-22T04:35:21.584Z,23.6
2017-02-22T04:37:54.225Z,23.6
2017-02-22T04:40:26.846Z,23.6
2017-02-22T04:42:59.488Z,23.6
2017-02-22T04:45:32.114Z,23.7
2017-02-22T04:48:04.762Z,23.6
2017-02-22T04:50:37.380Z,23.7
2017-02-22T04:53:10.023Z,23.7
2017-02-22T04:55:42.642Z,23.7
2017-02-22T04:58:15.265Z,23.7
2017-02-22T05:00:47.881Z,23.7
2017-02-22T05:03:20.502Z,23.7
2017-02-22T05:05:53.118Z,23.6
2017-02-22T05:08:25.742Z,23.6
2017-02-22T05:10:58.383Z,23.6
2017-02-22T05:13:31.468Z,23.7
2017-02-22T05:16:04.339Z,23.6
2017-02-22T05:18:36.942Z,23.7
2017-02-22T05:21:10.420Z,23.6
2017-02-22T05:23:43.866Z,23.6
2017-02-22T05:26:16.921Z,23.6
2017-02-22T05:28:49.983Z,23.6
2017-02-22T05:31:23.454Z,23.6
2017-02-22T05:33:56.082Z,23.6
2017-02-22T05:36:28.735Z,23.6
2017-02-22T05:39:02.005Z,23.6
2017-02-22T05:41:35.076Z,23.6
2017-02-22T05:44:07.730Z,23.6
2017-02-22T05:46:40.383Z,23.6
2017-02-22T05:49:13.435Z,23.6
2017-02-22T05:51:46.111Z,23.6
2017-02-22T05:54:19.184Z,23.6
2017-02-22T05:56:52.248Z,23.6
2017-02-22T05:59:25.319Z,23.6
2017-02-22T06:01:57.958Z,23.6
2017-02-22T06:04:30.617Z,23.7
2017-02-22T06:07:04.110Z,23.6
2017-02-22T06:09:37.172Z,23.6
2017-02-22T06:12:10.232Z,23.6
2017-02-22T06:14:43.254Z,23.6
2017-02-22T06:17:15.870Z,23.6
2017-02-22T06:19:48.544Z,23.6
2017-02-22T06:22:21.621Z,23.6
2017-02-22T06:24:54.646Z,23.6
2017-02-22T06:27:27.267Z,23.6
2017-02-22T06:29:59.891Z,23.6
2017-02-22T06:32:32.536Z,23.6
2017-02-22T06:35:05.598Z,23.6
2017-02-22T06:37:38.670Z,23.6
2017-02-22T06:40:11.753Z,23.6
2017-02-22T06:42:44.417Z,23.7
2017-02-22T06:45:17.082Z,23.7
2017-02-22T06:47:50.143Z,23.6
2017-02-22T06:50:22.788Z,23.6
2017-02-22T06:52:55.459Z,23.7
2017-02-22T06:55:28.090Z,23.7
2017-02-22T06:58:01.564Z,23.7
2017-02-22T07:00:34.613Z,23.7
2017-02-22T07:03:07.211Z,23.6
2017-02-22T07:05:39.819Z,23.7
2017-02-22T07:08:12.442Z,23.7
2017-02-22T07:10:45.111Z,23.7
2017-02-22T07:13:17.768Z,23.6
2017-02-22T07:15:50.423Z,23.6
2017-02-22T07:18:23.060Z,23.6
2017-02-22T07:20:56.104Z,23.7
2017-02-22T07:23:28.901Z,23.7
2017-02-22T07:26:01.983Z,23.7
2017-02-22T07:28:34.610Z,23.7
2017-02-22T07:31:07.221Z,23.6
2017-02-22T07:33:39.887Z,23.7
2017-02-22T07:36:12.535Z,23.7
2017-02-22T07:38:45.192Z,23.6
2017-02-22T07:41:18.240Z,23.7
2017-02-22T07:43:51.300Z,23.7
2017-02-22T07:46:23.960Z,23.7
2017-02-22T07:48:56.599Z,23.7
2017-02-22T07:51:29.219Z,23.7
2017-02-22T07:54:02.277Z,23.7
2017-02-22T07:56:34.885Z,23.7
2017-02-22T07:59:07.954Z,23.7
2017-02-22T08:01:40.578Z,23.7
2017-02-22T08:04:13.682Z,23.7
2017-02-22T08:06:46.316Z,23.7
2017-02-22T08:09:19.401Z,23.7
2017-02-22T08:11:52.054Z,23.6
2017-02-22T08:14:24.686Z,23.6
2017-02-22T08:16:57.773Z,23.6
2017-02-22T08:19:30.838Z,23.6
2017-02-22T08:22:03.910Z,23.5
2017-02-22T08:24:36.556Z,23.6
2017-02-22T08:27:09.684Z,23.6
2017-02-22T08:29:42.332Z,23.6
2017-02-22T08:32:14.970Z,23.6
2017-02-22T08:34:47.588Z,23.6
2017-02-22T08:37:20.237Z,23.5
2017-02-22T08:39:52.908Z,23.5
2017-02-22T08:42:25.582Z,23.4
2017-02-22T08:44:58.226Z,23.3
2017-02-22T08:47:30.878Z,23.3
2017-02-22T08:50:04.366Z,23.2
2017-02-22T08:52:37.050Z,23.2
2017-02-22T08:55:10.086Z,23.2
2017-02-22T08:57:42.728Z,23.2
2017-02-22T09:00:15.348Z,23.2
2017-02-22T09:02:48.002Z,23.3
2017-02-22T09:05:20.652Z,23.4
2017-02-22T09:07:53.720Z,23.4
2017-02-22T09:10:26.759Z,23.4
2017-02-22T09:12:59.601Z,23.4
2017-02-22T09:15:32.252Z,23.4
2017-02-22T09:18:04.874Z,23.4
2017-02-22T09:20:37.505Z,23.4
2017-02-22T09:23:10.545Z,23.4
2017-02-22T09:25:43.192Z,23.4
2017-02-22T09:28:16.272Z,23.4
2017-02-22T09:30:49.748Z,23.4
2017-02-22T09:33:22.800Z,23.5
2017-02-22T09:35:55.862Z,23.5
2017-02-22T09:38:28.877Z,23.6
2017-02-22T09:41:01.923Z,23.7
2017-02-22T09:43:34.568Z,23.7
2017-02-22T09:46:07.608Z,23.7
2017-02-22T09:48:40.243Z,23.6
2017-02-22T09:51:12.846Z,23.7
2017-02-22T09:53:45.500Z,23.7
2017-02-22T09:56:18.570Z,23.6
2017-02-22T09:58:51.230Z,23.7
2017-02-22T10:01:23.867Z,23.6
2017-02-22T10:03:56.512Z,23.6
2017-02-22T10:06:30.033Z,23.7
2017-02-22T10:09:02.678Z,23.6
2017-02-22T10:11:36.141Z,23.6
2017-02-22T10:14:09.162Z,23.7
2017-02-22T10:16:41.776Z,23.7
2017-02-22T10:19:14.418Z,23.7
2017-02-22T10:21:47.021Z,23.7
2017-02-22T10:24:20.066Z,23.7
2017-02-22T10:26:52.671Z,23.8
2017-02-22T10:29:25.701Z,23.8
2017-02-22T10:31:58.345Z,23.8
2017-02-22T10:34:31.172Z,23.8
2017-02-22T10:37:03.804Z,23.8
2017-02-22T10:39:36.414Z,23.8
2017-02-22T10:42:09.035Z,23.8
2017-02-22T10:44:42.528Z,23.8
2017-02-22T10:47:15.594Z,23.8
2017-02-22T10:49:48.212Z,23.8
2017-02-22T10:52:20.861Z,23.8
2017-02-22T10:54:53.485Z,23.8
2017-02-22T10:57:26.150Z,23.8
2017-02-22T10:59:58.806Z,23.8
2017-02-22T11:02:31.482Z,23.8
2017-02-22T11:05:04.115Z,23.8
2017-02-22T11:07:37.197Z,23.9
2017-02-22T11:10:09.812Z,23.8
2017-02-22T11:12:42.439Z,23.8
2017-02-22T11:15:15.085Z,23.8
2017-02-22T11:17:48.158Z,23.8
2017-02-22T11:20:20.779Z,23.8
2017-02-22T11:22:53.612Z,23.8
2017-02-22T11:25:26.226Z,23.8
2017-02-22T11:27:58.868Z,23.8
2017-02-22T11:30:31.493Z,23.8
2017-02-22T11:33:04.125Z,23.8
2017-02-22T11:35:37.170Z,23.8
2017-02-22T11:38:09.801Z,23.8
2017-02-22T11:40:42.865Z,23.8
2017-02-22T11:43:15.517Z,23.8
2017-02-22T11:45:48.141Z,23.8
2017-02-22T11:48:20.765Z,23.9
2017-02-22T11:50:53.407Z,23.8
2017-02-22T11:53:26.060Z,23.8
2017-02-22T11:55:59.087Z,23.7
2017-02-22T11:58:32.146Z,23.6
2017-02-22T12:01:05.191Z,23.4
2017-02-22T12:03:37.811Z,23.3
2017-02-22T12:06:10.458Z,23.2
2017-02-22T12:08:43.508Z,23.1
2017-02-22T12:11:16.145Z,23
2017-02-22T12:13:48.810Z,23.1
2017-02-22T12:16:21.445Z,23.1
2017-02-22T12:18:54.089Z,23.2
2017-02-22T12:21:27.123Z,23.2
2017-02-22T12:23:59.739Z,23.1
2017-02-22T12:26:32.355Z,23.2
2017-02-22T12:29:04.975Z,23.3
2017-02-22T12:31:37.597Z,23.2
2017-02-22T12:34:10.213Z,23.1
2017-02-22T12:36:42.829Z,23.1
2017-02-22T12:39:15.486Z,23
2017-02-22T12:41:48.119Z,22.9
2017-02-22T12:44:20.748Z,22.9
2017-02-22T12:46:53.787Z,22.8
2017-02-22T12:49:26.428Z,22.8
2017-02-22T12:51:59.054Z,22.8
2017-02-22T12:54:31.704Z,22.9
2017-02-22T12:57:04.352Z,22.9
2017-02-22T12:59:37.840Z,22.8
2017-02-22T13:02:10.862Z,22.7
2017-02-22T13:04:43.533Z,22.7
2017-02-22T13:07:16.179Z,22.6
2017-02-22T13:09:48.835Z,22.6
2017-02-22T13:12:21.452Z,22.6
2017-02-22T13:14:54.066Z,22.5
2017-02-22T13:17:26.756Z,22.5
2017-02-22T13:19:59.384Z,22.5
2017-02-22T13:22:32.027Z,22.5
2017-02-22T13:25:04.683Z,22.6
2017-02-22T13:27:37.333Z,22.6
2017-02-22T13:30:09.991Z,22.7
2017-02-22T13:32:42.630Z,22.7
2017-02-22T13:35:15.279Z,22.8
2017-02-22T13:37:47.916Z,22.9
2017-02-22T13:40:20.566Z,22.9
2017-02-22T13:42:53.202Z,23
2017-02-22T13:45:26.286Z,23
2017-02-22T13:47:58.955Z,23
2017-02-22T13:50:31.993Z,23
2017-02-22T13:53:04.634Z,23
2017-02-22T13:55:37.278Z,23.1
2017-02-22T13:58:10.333Z,23.1
2017-02-22T14:00:42.956Z,23.1
2017-02-22T14:03:15.557Z,23.2
2017-02-22T14:05:48.598Z,23.1
2017-02-22T14:08:21.241Z,23.1
2017-02-22T14:10:53.866Z,23.2
2017-02-22T14:13:26.502Z,23.1
2017-02-22T14:15:59.113Z,23.1
2017-02-22T14:18:32.152Z,23.1
2017-02-22T14:21:04.787Z,23.2
2017-02-22T14:23:37.421Z,23.2
2017-02-22T14:26:10.046Z,23.2
2017-02-22T14:28:42.652Z,23
2017-02-22T14:31:15.304Z,23
2017-02-22T14:33:47.937Z,23
2017-02-22T14:36:20.984Z,22.9
2017-02-22T14:38:53.610Z,22.8
2017-02-22T14:41:26.682Z,22.7
2017-02-22T14:43:59.285Z,22.7
2017-02-22T14:46:32.380Z,22.7
2017-02-22T14:49:05.039Z,22.7
2017-02-22T14:51:38.496Z,22.8
2017-02-22T14:54:11.170Z,22.8
2017-02-22T14:56:43.778Z,22.9
2017-02-22T14:59:16.805Z,23
2017-02-22T15:01:49.445Z,23
2017-02-22T15:04:22.270Z,23.1
2017-02-22T15:06:55.318Z,23
2017-02-22T15:09:27.954Z,23.1
2017-02-22T15:12:01.434Z,23.1
2017-02-22T15:14:34.060Z,23.2
2017-02-22T15:17:07.558Z,23.3
2017-02-22T15:19:40.179Z,23.3
2017-02-22T15:22:12.803Z,23.3
2017-02-22T15:24:45.649Z,23.4
2017-02-22T15:27:18.295Z,23.4
2017-02-22T15:29:51.376Z,23.5
2017-02-22T15:32:24.042Z,23.5
2017-02-22T15:34:57.109Z,23.5
2017-02-22T15:37:29.755Z,23.5
2017-02-22T15:40:03.223Z,23.5
2017-02-22T15:42:36.687Z,23.5
2017-02-22T15:45:09.318Z,23.5
2017-02-22T15:47:41.960Z,23.5
2017-02-22T15:50:15.459Z,23.5
2017-02-22T15:52:48.110Z,23.5
2017-02-22T15:55:21.155Z,23.5
2017-02-22T15:57:53.766Z,23.5
2017-02-22T16:00:26.411Z,23.5
2017-02-22T16:02:59.465Z,23.5
2017-02-22T16:05:32.072Z,23.5
2017-02-22T16:08:05.760Z,23.5
2017-02-22T16:10:38.426Z,23.5
2017-02-22T16:13:11.070Z,23.5
2017-02-22T16:15:43.711Z,23.5
2017-02-22T16:18:16.776Z,23.4
2017-02-22T16:20:50.271Z,23.5
2017-02-22T16:23:22.939Z,23.5
2017-02-22T16:25:55.554Z,23.5
2017-02-22T16:28:28.422Z,23.5
2017-02-22T16:31:01.506Z,23.5
2017-02-22T16:33:34.576Z,23.5
2017-02-22T16:36:07.617Z,23.5
2017-02-22T16:38:40.649Z,23.5
2017-02-22T16:41:14.122Z,23.5
2017-02-22T16:43:46.772Z,23.5
2017-02-22T16:46:19.399Z,23.5
2017-02-22T16:48:52.470Z,23.1
2017-02-22T16:51:25.521Z,23
2017-02-22T16:53:58.158Z,22.9
2017-02-22T16:56:31.220Z,23
2017-02-22T16:59:03.877Z,23.1
2017-02-22T17:01:36.522Z,23.2
2017-02-22T17:04:09.181Z,23.2
2017-02-22T17:06:41.831Z,23.2
2017-02-22T17:09:14.927Z,23.2
2017-02-22T17:11:47.575Z,23.3
2017-02-22T17:14:20.202Z,23.3
2017-02-22T17:16:52.837Z,23.3
2017-02-22T17:19:25.462Z,23.3
2017-02-22T17:21:58.112Z,23.3
2017-02-22T17:24:31.190Z,23.3
2017-02-22T17:27:03.806Z,23.3
2017-02-22T17:29:36.437Z,23.3
2017-02-22T17:32:09.070Z,23.3
2017-02-22T17:34:41.739Z,23.3
2017-02-22T17:37:14.387Z,23.3
2017-02-22T17:39:47.047Z,23.3
2017-02-22T17:42:19.661Z,23.3
2017-02-22T17:44:52.281Z,23.3
2017-02-22T17:47:24.900Z,23.3
2017-02-22T17:49:58.011Z,23.3
2017-02-22T17:52:31.070Z,23.3
2017-02-22T17:55:04.117Z,23.3
2017-02-22T17:57:36.725Z,23.3
2017-02-22T18:00:09.475Z,23.3
2017-02-22T18:02:42.115Z,23.3
2017-02-22T18:05:15.204Z,23.3
2017-02-22T18:07:47.849Z,23.3
2017-02-22T18:10:20.964Z,23.3
2017-02-22T18:12:53.596Z,23.3
2017-02-22T18:15:26.642Z,23.3
2017-02-22T18:17:59.266Z,23.3
2017-02-22T18:20:31.888Z,23.3
2017-02-22T18:23:04.502Z,23.3
2017-02-22T18:25:37.156Z,23.3
2017-02-22T18:28:10.179Z,23.3
2017-02-22T18:30:42.798Z,23.3
2017-02-22T18:33:15.855Z,23.3
2017-02-22T18:35:48.517Z,23.3
2017-02-22T18:38:21.172Z,23.3
2017-02-22T18:40:53.806Z,23.3
2017-02-22T18:43:26.426Z,23.3
2017-02-22T18:45:59.065Z,23.3
2017-02-22T18:48:31.686Z,23.3
2017-02-22T18:51:04.334Z,23.3
2017-02-22T18:53:36.945Z,23.3
2017-02-22T18:56:09.579Z,23.2
2017-02-22T18:58:42.235Z,23.3
2017-02-22T19:01:14.861Z,23.3
2017-02-22T19:03:47.891Z,23.3
2017-02-22T19:06:21.001Z,23.3
2017-02-22T19:08:54.077Z,23.2
2017-02-22T19:11:26.686Z,23.3
2017-02-22T19:13:59.306Z,23.3
2017-02-22T19:16:31.942Z,23.3
2017-02-22T19:19:04.979Z,23.3
2017-02-22T19:21:38.044Z,23.3
2017-02-22T19:24:11.132Z,23.4
2017-02-22T19:26:43.773Z,23.3
2017-02-22T19:29:16.384Z,23.4
2017-02-22T19:31:49.007Z,23.3
2017-02-22T19:34:21.629Z,23.4
2017-02-22T19:36:54.260Z,23.4
2017-02-22T19:39:27.719Z,23.4
2017-02-22T19:42:00.816Z,23.4
2017-02-22T19:44:33.462Z,23.4
2017-02-22T19:47:06.100Z,23.5
2017-02-22T19:49:38.730Z,23.6
2017-02-22T19:52:11.768Z,23.5
2017-02-22T19:54:44.379Z,23.5
2017-02-22T19:57:17.848Z,23.6
2017-02-22T19:59:50.490Z,23.6
2017-02-22T20:02:23.122Z,23.6
2017-02-22T20:04:55.771Z,23.6
2017-02-22T20:07:28.418Z,23.6
2017-02-22T20:10:01.886Z,23.6
2017-02-22T20:12:34.922Z,23.6
2017-02-22T20:15:07.542Z,23.6
2017-02-22T20:17:41.004Z,23.6
2017-02-22T20:20:13.628Z,23.6
2017-02-22T20:22:46.264Z,23.6
2017-02-22T20:25:18.893Z,23.6
2017-02-22T20:27:51.539Z,23.6
2017-02-22T20:30:24.174Z,23.6
2017-02-22T20:32:56.810Z,23.6
2017-02-22T20:35:29.852Z,23.6
2017-02-22T20:38:02.483Z,23.6
2017-02-22T20:40:35.131Z,23.6
2017-02-22T20:43:07.760Z,23.6
2017-02-22T20:45:40.769Z,23.6
2017-02-22T20:48:13.405Z,23.6
2017-02-22T20:50:46.030Z,23.6
2017-02-22T20:53:18.659Z,23.6
2017-02-22T20:55:51.286Z,23.6
2017-02-22T20:58:23.939Z,23.6
2017-02-22T21:00:57.387Z,23.6
2017-02-22T21:03:30.042Z,23.6
2017-02-22T21:06:03.526Z,23.6
2017-02-22T21:08:37.001Z,23.6
2017-02-22T21:11:09.631Z,23.6
2017-02-22T21:13:42.670Z,23.6
2017-02-22T21:16:15.719Z,23.6
2017-02-22T21:18:48.771Z,23.6
2017-02-22T21:21:21.384Z,23.6
2017-02-22T21:23:54.844Z,23.6
2017-02-22T21:26:27.906Z,23.6
2017-02-22T21:29:00.546Z,23.6
2017-02-22T21:31:33.576Z,23.6
2017-02-22T21:34:06.216Z,23.6
2017-02-22T21:36:38.844Z,23.6
2017-02-22T21:39:11.901Z,23.6
2017-02-22T21:41:44.539Z,23.6
2017-02-22T21:44:18.553Z,23.6
2017-02-22T21:46:51.190Z,23.6
2017-02-22T21:49:23.811Z,23.6
2017-02-22T21:51:56.448Z,23.6
2017-02-22T21:54:29.101Z,23.6
2017-02-22T21:57:02.184Z,23.6
2017-02-22T21:59:34.808Z,23.6
2017-02-22T22:02:07.460Z,23.6
2017-02-22T22:04:40.951Z,23.6
2017-02-22T22:07:13.568Z,23.6
2017-02-22T22:09:47.042Z,23.6
2017-02-22T22:12:19.688Z,23.6
2017-02-22T22:14:52.332Z,23.6
2017-02-22T22:17:25.383Z,23.6
2017-02-22T22:21:02.572Z,23.6
2017-02-22T22:23:35.554Z,23.6
2017-02-22T22:26:08.525Z,23.6
2017-02-22T22:28:41.490Z,23.6
2017-02-22T22:31:14.463Z,23.6
2017-02-22T22:33:46.990Z,23.6
2017-02-22T22:36:19.525Z,23.6
2017-02-22T22:38:52.092Z,23.6
2017-02-22T22:41:24.621Z,23.6
2017-02-22T22:43:57.583Z,23.6
2017-02-22T22:46:30.110Z,23.6
2017-02-22T22:49:03.115Z,23.6
2017-02-22T22:51:35.645Z,23.6
2017-02-22T22:54:08.202Z,23.6
2017-02-22T22:56:41.178Z,23.6
2017-02-22T22:59:13.758Z,23.6
2017-02-22T23:01:46.307Z,23.6
2017-02-22T23:04:18.861Z,23.6
2017-02-22T23:06:51.412Z,23.6
2017-02-22T23:09:23.955Z,23.5
2017-02-22T23:11:56.894Z,23.5
2017-02-22T23:14:29.445Z,23.5
2017-02-22T23:17:02.404Z,23.6
2017-02-22T23:19:34.919Z,23.5
2017-02-22T23:22:07.470Z,23.5
2017-02-22T23:24:40.007Z,23.5
2017-02-22T23:27:12.981Z,23.5
2017-02-22T23:29:45.539Z,23.6
2017-02-22T23:32:18.495Z,23.6
2017-02-22T23:34:51.432Z,23.6
2017-02-22T23:37:23.974Z,23.6
2017-02-22T23:39:56.940Z,23.6
2017-02-22T23:42:29.473Z,23.6
2017-02-22T23:45:02.457Z,23.6
2017-02-22T23:47:34.996Z,23.6
2017-02-22T23:50:07.572Z,23.6
2017-02-22T23:52:40.125Z,23.6
2017-02-22T23:55:13.088Z,23.6
2017-02-22T23:57:45.626Z,23.6
